Time;durP1;ratioP1;P1;durP2;ratioP2;P2;SDS_P1;SDS_P2;PMS_P1;PMS_P2;Temp;Humidity;BMP_temperature;BMP_pressure;BME280_temperature;BME280_humidity;BME280_pressure;Samples;Min_cycle;Max_cycle;Signal;HPM_P1;HPM_P2
2024/01/29 00:00:13;;;;;;;32.60;15.70;;;;;;;1.56;83.03;103149.14;104951;1260;139006;-59
2024/01/29 00:02:59;;;;;;;34.90;15.10;;;;;;;1.48;83.16;103150.47;108984;1256;74716;-60
2024/01/29 00:05:26;;;;;;;30.40;15.30;;;;;;;1.50;83.62;103151.39;108844;1254;139458;-60
2024/01/29 00:07:53;;;;;;;25.10;15.70;;;;;;;1.56;83.58;103150.27;108799;1259;60552;-64
2024/01/29 00:10:22;;;;;;;27.80;15.10;;;;;;;1.63;83.75;103150.60;104864;1255;75244;-64
2024/01/29 00:12:48;;;;;;;25.00;14.90;;;;;;;1.69;83.85;103150.63;107344;1259;138630;-64
2024/01/29 00:15:15;;;;;;;29.20;14.50;;;;;;;1.73;83.78;103146.23;105090;1256;73695;-60
2024/01/29 00:17:42;;;;;;;27.10;14.90;;;;;;;1.74;83.60;103143.36;104976;1255;138563;-64
2024/01/29 00:20:09;;;;;;;23.80;14.10;;;;;;;1.73;83.32;103147.48;105150;1260;61253;-64
2024/01/29 00:22:36;;;;;;;29.60;15.40;;;;;;;1.72;83.42;103151.29;105041;1258;73947;-65
2024/01/29 00:25:03;;;;;;;26.70;16.20;;;;;;;1.73;83.46;103146.53;105035;1264;138507;-64
2024/01/29 00:27:30;;;;;;;30.10;15.00;;;;;;;1.69;83.29;103146.05;105036;1258;72974;-64
2024/01/29 00:29:58;;;;;;;25.30;15.20;;;;;;;1.62;83.03;103149.22;104707;1270;139201;-64
2024/01/29 00:32:25;;;;;;;25.30;16.00;;;;;;;1.52;82.88;103152.91;105107;1258;61165;-62
2024/01/29 00:34:53;;;;;;;32.90;16.90;;;;;;;1.45;82.98;103151.57;104957;1258;138319;-60
2024/01/29 00:37:22;;;;;;;26.40;15.10;;;;;;;1.44;83.10;103153.73;109208;1254;65422;-59
2024/01/29 00:39:52;;;;;;;21.90;15.80;;;;;;;1.46;83.30;103151.98;109161;1254;72640;-59
2024/01/29 00:42:19;;;;;;;26.90;15.90;;;;;;;1.48;83.38;103146.77;109095;1260;138144;-59
2024/01/29 00:44:48;;;;;;;33.20;17.70;;;;;;;1.51;83.42;103147.44;105390;1259;61946;-60
2024/01/29 00:47:14;;;;;;;33.90;16.20;;;;;;;1.55;83.57;103147.88;104799;1260;138965;-60
2024/01/29 00:49:41;;;;;;;28.60;18.10;;;;;;;1.61;83.63;103146.91;104928;1256;65169;-59
2024/01/29 00:52:08;;;;;;;28.00;15.60;;;;;;;1.68;83.88;103145.56;104837;1260;71871;-60
2024/01/29 00:54:34;;;;;;;29.30;17.00;;;;;;;1.74;83.58;103141.83;104926;1255;139943;-60
2024/01/29 00:57:01;;;;;;;33.40;16.90;;;;;;;1.80;83.65;103137.64;104983;1254;61203;-59
2024/01/29 00:59:28;;;;;;;30.90;15.80;;;;;;;1.82;83.49;103137.51;104864;1260;138799;-59
2024/01/29 01:01:54;;;;;;;33.10;17.30;;;;;;;1.84;83.45;103135.49;104999;1258;66835;-59
2024/01/29 01:04:21;;;;;;;28.80;17.60;;;;;;;1.86;83.81;103133.66;105025;1259;73839;-64
2024/01/29 01:06:48;;;;;;;32.80;18.70;;;;;;;1.89;83.57;103130.30;104910;1260;138508;-63
2024/01/29 01:09:14;;;;;;;30.30;17.20;;;;;;;1.91;83.61;103135.14;105031;1254;61730;-64
2024/01/29 01:11:42;;;;;;;28.80;18.00;;;;;;;1.94;83.61;103137.56;104923;1254;138657;-63
2024/01/29 01:14:09;;;;;;;29.50;19.10;;;;;;;1.98;83.72;103135.08;105264;1254;64315;-63
2024/01/29 01:16:35;;;;;;;30.60;19.60;;;;;;;2.00;83.61;103135.49;105054;1254;73301;-64
2024/01/29 01:19:02;;;;;;;31.00;18.90;;;;;;;2.00;83.51;103130.86;104930;1257;138517;-64
2024/01/29 01:21:29;;;;;;;32.90;19.90;;;;;;;2.04;83.63;103130.31;105111;1259;61215;-64
2024/01/29 01:23:56;;;;;;;33.20;20.90;;;;;;;2.06;83.55;103130.02;105002;1260;138714;-64
2024/01/29 01:26:22;;;;;;;41.00;21.70;;;;;;;2.06;83.52;103124.32;105048;1260;65781;-65
2024/01/29 01:28:49;;;;;;;35.10;22.10;;;;;;;2.08;83.67;103129.16;105171;1254;70878;-66
2024/01/29 01:31:16;;;;;;;39.80;22.20;;;;;;;2.10;83.52;103130.44;105052;1255;61304;-58
2024/01/29 01:33:42;;;;;;;35.30;22.10;;;;;;;2.15;83.63;103129.66;105063;1254;61247;-59
2024/01/29 01:36:09;;;;;;;37.60;23.00;;;;;;;2.17;83.69;103125.71;104925;1260;138791;-65
2024/01/29 01:38:36;;;;;;;37.60;22.90;;;;;;;2.17;83.61;103122.08;105135;1254;65684;-65
2024/01/29 01:41:03;;;;;;;36.50;24.50;;;;;;;2.20;83.78;103118.89;104979;1258;138837;-64
2024/01/29 01:43:30;;;;;;;36.60;23.10;;;;;;;2.22;83.68;103113.05;105135;1259;61225;-65
2024/01/29 01:46:06;;;;;;;37.70;23.80;;;;;;;2.22;83.48;103111.67;105045;1255;61222;-65
2024/01/29 01:48:35;;;;;;;43.00;24.80;;;;;;;2.23;83.66;103105.70;105239;1257;139289;-60
2024/01/29 01:51:03;;;;;;;40.20;25.50;;;;;;;2.25;83.57;103100.71;104882;1260;65569;-60
2024/01/29 01:53:31;;;;;;;44.60;25.50;;;;;;;2.24;83.38;103097.63;104909;1260;138704;-59
2024/01/29 01:55:58;;;;;;;40.60;25.60;;;;;;;2.22;83.39;103096.94;104757;1254;61244;-59
2024/01/29 01:58:29;;;;;;;41.80;25.00;;;;;;;2.23;83.42;103095.16;108883;1254;60080;-59
2024/01/29 02:00:56;;;;;;;45.90;26.70;;;;;;;2.23;83.41;103092.89;105526;1260;139194;-58
2024/01/29 02:03:22;;;;;;;49.30;34.20;;;;;;;2.25;83.53;103094.09;105199;1259;67651;-59
2024/01/29 02:05:49;;;;;;;66.00;43.20;;;;;;;2.25;83.48;103095.32;104642;1254;138892;-60
2024/01/29 02:08:16;;;;;;;69.50;45.50;;;;;;;2.23;83.42;103088.86;104816;1260;61436;-64
2024/01/29 02:10:43;;;;;;;76.40;51.10;;;;;;;2.23;83.49;103089.40;104808;1254;61305;-59
2024/01/29 02:13:11;;;;;;;48.60;32.80;;;;;;;2.24;83.50;103085.65;106281;1256;138386;-60
2024/01/29 02:15:37;;;;;;;47.20;28.60;;;;;;;2.24;83.57;103084.61;105066;1260;67633;-66
2024/01/29 02:18:04;;;;;;;47.80;27.40;;;;;;;2.24;83.68;103086.75;104893;1256;138822;-65
2024/01/29 02:20:31;;;;;;;44.60;28.40;;;;;;;2.25;83.49;103088.55;105165;1257;61372;-63
2024/01/29 02:22:58;;;;;;;42.60;28.00;;;;;;;2.27;83.57;103086.12;104900;1257;139951;-63
2024/01/29 02:25:24;;;;;;;56.10;29.40;;;;;;;2.25;83.66;103078.21;105087;1254;74402;-59
2024/01/29 02:27:51;;;;;;;51.00;30.50;;;;;;;2.23;83.41;103075.16;104968;1254;67279;-63
2024/01/29 02:30:18;;;;;;;51.10;30.10;;;;;;;2.20;83.52;103071.12;105004;1254;138486;-63
2024/01/29 02:32:45;;;;;;;50.60;30.60;;;;;;;2.17;83.39;103066.63;105039;1255;61376;-59
2024/01/29 02:35:12;;;;;;;48.50;30.80;;;;;;;2.11;83.33;103064.02;104961;1260;138845;-61
2024/01/29 02:37:38;;;;;;;51.90;30.60;;;;;;;2.06;83.33;103059.20;104880;1260;75682;-59
2024/01/29 02:40:06;;;;;;;47.30;30.20;;;;;;;2.02;83.45;103058.64;105056;1254;65620;-60
2024/01/29 02:42:33;;;;;;;46.20;29.20;;;;;;;2.01;83.62;103059.59;104838;1256;138826;-65
2024/01/29 02:44:59;;;;;;;56.60;30.80;;;;;;;2.00;83.58;103053.73;104832;1260;61385;-65
2024/01/29 02:47:26;;;;;;;48.00;30.30;;;;;;;1.96;83.44;103052.15;105115;1259;139065;-64
2024/01/29 02:49:53;;;;;;;52.50;30.30;;;;;;;1.91;83.35;103050.88;105115;1260;75717;-64
2024/01/29 02:52:20;;;;;;;51.80;29.90;;;;;;;1.86;83.54;103044.81;105045;1254;66824;-65
2024/01/29 02:54:47;;;;;;;50.70;30.40;;;;;;;1.78;83.38;103041.03;104930;1259;138905;-59
2024/01/29 02:57:14;;;;;;;52.40;31.90;;;;;;;1.71;83.42;103035.02;104875;1254;62289;-60
2024/01/29 02:59:41;;;;;;;49.20;31.70;;;;;;;1.66;83.36;103034.38;104815;1254;138727;-58
2024/01/29 03:02:07;;;;;;;55.30;33.10;;;;;;;1.57;83.51;103035.95;104708;1257;75011;-59
2024/01/29 03:04:35;;;;;;;50.80;32.60;;;;;;;1.48;83.33;103039.33;105055;1261;65757;-59
2024/01/29 03:07:01;;;;;;;48.30;29.80;;;;;;;1.41;83.63;103035.02;104862;1259;138639;-59
2024/01/29 03:09:28;;;;;;;47.10;29.90;;;;;;;1.32;83.52;103024.66;105014;1259;61148;-59
2024/01/29 03:11:54;;;;;;;50.70;29.10;;;;;;;1.24;83.64;103022.85;104744;1257;139203;-60
2024/01/29 03:14:21;;;;;;;46.70;28.30;;;;;;;1.15;83.62;103018.47;105115;1254;72771;-59
2024/01/29 03:16:51;;;;;;;51.50;29.70;;;;;;;1.08;83.61;103014.38;104917;1260;67578;-59
2024/01/29 03:19:18;;;;;;;48.00;29.50;;;;;;;1.02;83.78;103018.44;105054;1260;72641;-63
2024/01/29 03:21:45;;;;;;;42.60;29.60;;;;;;;0.96;83.85;103021.12;105025;1259;62115;-63
2024/01/29 03:24:12;;;;;;;49.10;27.70;;;;;;;0.91;83.91;103022.00;104918;1254;138715;-59
2024/01/29 03:26:39;;;;;;;49.00;28.90;;;;;;;0.87;83.91;103021.71;109135;1254;74901;-60
2024/01/29 03:29:05;;;;;;;43.10;28.10;;;;;;;0.83;83.96;103016.13;108601;1258;139659;-63
2024/01/29 03:31:32;;;;;;;48.30;30.00;;;;;;;0.79;84.16;103019.17;104868;1254;72292;-59
2024/01/29 03:33:58;;;;;;;49.30;28.70;;;;;;;0.75;84.20;103018.48;105042;1260;61347;-59
2024/01/29 03:36:25;;;;;;;49.40;28.80;;;;;;;0.71;84.07;103020.11;104856;1260;139014;-58
2024/01/29 03:38:52;;;;;;;46.40;28.60;;;;;;;0.67;84.05;103021.27;104964;1254;72653;-60
2024/01/29 03:41:19;;;;;;;44.80;27.30;;;;;;;0.62;84.09;103016.77;104909;1254;138904;-63
2024/01/29 03:43:45;;;;;;;45.50;29.40;;;;;;;0.58;84.06;103013.29;105141;1259;71621;-64
2024/01/29 03:46:12;;;;;;;51.90;28.60;;;;;;;0.55;84.31;103013.48;105016;1254;61376;-58
2024/01/29 03:48:39;;;;;;;44.00;28.00;;;;;;;0.51;84.25;103005.46;104996;1259;138811;-59
2024/01/29 03:51:06;;;;;;;45.20;28.30;;;;;;;0.46;84.24;103007.73;104988;1254;74790;-59
2024/01/29 03:53:32;;;;;;;46.50;28.60;;;;;;;0.42;84.38;103007.36;104916;1259;138921;-63
2024/01/29 03:55:59;;;;;;;48.40;28.90;;;;;;;0.39;84.61;103008.77;104896;1254;72667;-63
2024/01/29 03:58:26;;;;;;;47.20;28.40;;;;;;;0.36;84.71;103008.54;105005;1255;61213;-63
2024/01/29 04:00:52;;;;;;;50.90;29.10;;;;;;;0.33;84.64;103008.23;104935;1259;139243;-64
2024/01/29 04:03:19;;;;;;;51.30;29.10;;;;;;;0.32;84.66;103008.26;104941;1254;73051;-64
2024/01/29 04:05:46;;;;;;;48.30;28.70;;;;;;;0.30;84.82;103002.21;104709;1263;142246;-60
2024/01/29 04:08:13;;;;;;;52.30;28.50;;;;;;;0.28;84.85;103001.96;105000;1254;72371;-59
2024/01/29 04:10:39;;;;;;;48.00;27.80;;;;;;;0.26;85.07;102995.37;105011;1254;61301;-60
2024/01/29 04:13:06;;;;;;;46.70;28.00;;;;;;;0.25;85.05;103001.31;104937;1260;139222;-60
2024/01/29 04:15:33;;;;;;;47.10;28.10;;;;;;;0.24;85.06;103002.25;104932;1256;76232;-63
2024/01/29 04:17:59;;;;;;;42.30;27.30;;;;;;;0.23;85.09;102999.84;104846;1258;139211;-64
2024/01/29 04:20:26;;;;;;;53.00;28.80;;;;;;;0.20;85.07;103000.80;105075;1254;73399;-64
2024/01/29 04:22:53;;;;;;;46.40;28.60;;;;;;;0.18;85.27;102995.98;104966;1254;139023;-60
2024/01/29 04:25:19;;;;;;;44.50;27.70;;;;;;;0.17;85.31;102984.63;108991;1254;61552;-64
2024/01/29 04:27:46;;;;;;;46.80;28.70;;;;;;;0.16;85.29;102977.43;106704;1256;75815;-63
2024/01/29 04:30:14;;;;;;;49.40;28.60;;;;;;;0.16;85.30;102977.06;105000;1260;138767;-64
2024/01/29 04:32:41;;;;;;;47.80;27.60;;;;;;;0.16;85.36;102975.86;105199;1261;73127;-63
2024/01/29 04:35:07;;;;;;;44.70;26.70;;;;;;;0.17;85.39;102978.92;104959;1259;139289;-64
2024/01/29 04:37:34;;;;;;;42.60;27.70;;;;;;;0.17;85.53;102975.64;105115;1259;61238;-65
2024/01/29 04:40:02;;;;;;;44.40;26.90;;;;;;;0.18;85.46;102975.54;105139;1256;74925;-63
2024/01/29 04:42:29;;;;;;;44.40;27.40;;;;;;;0.18;85.45;102964.52;105036;1254;138684;-64
2024/01/29 04:44:56;;;;;;;47.10;27.30;;;;;;;0.18;85.63;102966.09;104887;1254;73252;-58
2024/01/29 04:47:22;;;;;;;43.60;28.00;;;;;;;0.18;85.61;102965.23;104936;1259;138981;-63
2024/01/29 04:49:49;;;;;;;47.60;28.00;;;;;;;0.18;85.78;102963.87;105041;1258;61231;-59
2024/01/29 04:52:16;;;;;;;43.80;26.80;;;;;;;0.18;85.67;102969.36;105055;1254;72911;-61
2024/01/29 04:54:42;;;;;;;50.40;27.70;;;;;;;0.19;85.59;102964.64;104971;1258;138690;-59
2024/01/29 04:57:09;;;;;;;46.40;27.40;;;;;;;0.20;85.56;102966.06;104968;1254;74031;-64
2024/01/29 04:59:36;;;;;;;50.10;26.20;;;;;;;0.19;85.90;102961.83;104933;1254;138829;-59
2024/01/29 05:02:03;;;;;;;45.10;27.00;;;;;;;0.18;85.63;102961.21;104998;1259;61267;-60
2024/01/29 05:04:29;;;;;;;49.30;27.30;;;;;;;0.17;85.56;102957.15;105042;1259;75251;-59
2024/01/29 05:06:56;;;;;;;38.90;24.60;;;;;;;0.15;85.40;102960.08;104690;1261;139792;-64
2024/01/29 05:09:22;;;;;;;43.60;25.60;;;;;;;0.13;85.64;102960.35;105049;1257;73342;-64
2024/01/29 05:11:49;;;;;;;43.10;25.70;;;;;;;0.12;85.62;102960.44;104874;1255;139308;-65
2024/01/29 05:14:16;;;;;;;45.80;25.30;;;;;;;0.12;85.81;102962.55;104968;1260;61353;-64
2024/01/29 05:16:42;;;;;;;44.60;25.40;;;;;;;0.14;85.89;102963.44;105067;1260;75099;-64
2024/01/29 05:19:12;;;;;;;43.20;24.80;;;;;;;0.15;85.74;102954.88;105271;1254;138666;-64
2024/01/29 05:21:39;;;;;;;43.50;25.60;;;;;;;0.14;85.95;102949.14;105306;1259;73864;-63
2024/01/29 05:24:06;;;;;;;43.70;25.00;;;;;;;0.16;85.85;102945.61;105042;1254;139595;-59
2024/01/29 05:26:33;;;;;;;48.10;25.40;;;;;;;0.15;85.69;102947.11;105181;1259;61142;-63
2024/01/29 05:28:59;;;;;;;42.10;24.60;;;;;;;0.16;85.87;102956.04;104982;1254;138972;-59
2024/01/29 05:31:26;;;;;;;39.90;24.20;;;;;;;0.16;85.79;102957.40;105009;1257;65533;-59
2024/01/29 05:33:53;;;;;;;40.50;25.00;;;;;;;0.15;85.86;102954.42;105093;1254;73137;-59
2024/01/29 05:36:19;;;;;;;44.40;24.30;;;;;;;0.15;85.71;102961.48;104891;1255;138650;-59
2024/01/29 05:38:46;;;;;;;45.00;24.20;;;;;;;0.14;85.75;102963.95;105010;1256;61351;-60
2024/01/29 05:41:13;;;;;;;42.40;24.50;;;;;;;0.14;85.77;102963.40;104759;1254;138927;-61
2024/01/29 05:43:39;;;;;;;33.50;22.30;;;;;;;0.12;85.87;102967.04;105029;1254;66205;-59
2024/01/29 05:46:06;;;;;;;42.00;24.20;;;;;;;0.12;85.93;102964.44;105121;1258;72131;-64
2024/01/29 05:48:33;;;;;;;44.00;23.80;;;;;;;0.11;85.77;102964.15;105028;1254;139005;-59
2024/01/29 05:51:00;;;;;;;44.50;24.80;;;;;;;0.11;85.86;102966.93;105102;1254;61356;-65
2024/01/29 05:53:27;;;;;;;37.80;22.90;;;;;;;0.11;85.84;102972.30;105419;1254;138862;-65
2024/01/29 05:55:53;;;;;;;40.30;23.70;;;;;;;0.11;85.82;102975.34;105008;1254;65974;-59
2024/01/29 05:58:21;;;;;;;42.20;24.20;;;;;;;0.08;85.64;102976.94;105194;1254;72083;-62
2024/01/29 06:00:50;;;;;;;44.80;24.10;;;;;;;0.06;85.90;102972.12;105067;1257;139201;-60
2024/01/29 06:03:19;;;;;;;40.20;23.90;;;;;;;0.05;85.72;102965.77;105064;1258;61921;-64
2024/01/29 06:05:46;;;;;;;38.50;23.90;;;;;;;0.06;85.80;102973.61;104882;1254;139172;-64
2024/01/29 06:08:12;;;;;;;45.10;24.30;;;;;;;0.05;85.82;102975.43;109145;1254;65784;-59
2024/01/29 06:10:39;;;;;;;42.90;23.90;;;;;;;0.07;85.92;102971.82;109182;1254;71369;-60
2024/01/29 06:13:06;;;;;;;39.90;24.00;;;;;;;0.10;85.79;102970.61;107717;1257;138625;-60
2024/01/29 06:15:32;;;;;;;44.20;23.70;;;;;;;0.12;86.11;102976.39;104974;1260;61223;-58
2024/01/29 06:17:59;;;;;;;45.10;25.20;;;;;;;0.15;85.84;102977.52;104900;1254;139019;-59
2024/01/29 06:20:26;;;;;;;45.50;26.10;;;;;;;0.17;85.98;102980.20;104927;1259;67665;-58
2024/01/29 06:22:53;;;;;;;46.10;26.00;;;;;;;0.19;85.95;102981.21;104889;1254;138829;-59
2024/01/29 06:25:19;;;;;;;42.60;25.60;;;;;;;0.19;85.72;102981.36;105052;1254;61264;-64
2024/01/29 06:27:46;;;;;;;41.50;25.60;;;;;;;0.20;85.96;102981.79;105078;1254;61279;-64
2024/01/29 06:30:14;;;;;;;41.10;26.00;;;;;;;0.21;85.97;102978.56;104725;1254;139568;-60
2024/01/29 06:32:41;;;;;;;52.90;26.80;;;;;;;0.22;86.07;102977.98;105015;1259;66663;-64
2024/01/29 06:35:09;;;;;;;43.60;25.20;;;;;;;0.22;85.94;102978.75;109011;1254;139931;-64
2024/01/29 06:37:36;;;;;;;38.90;24.40;;;;;;;0.23;86.07;102975.04;108969;1256;59257;-60
2024/01/29 06:40:03;;;;;;;45.90;26.30;;;;;;;0.25;85.84;102969.71;109245;1254;60410;-60
2024/01/29 06:42:30;;;;;;;47.80;26.70;;;;;;;0.29;85.97;102969.45;108880;1254;138748;-64
2024/01/29 06:44:56;;;;;;;45.60;26.70;;;;;;;0.32;85.85;102971.95;108625;1256;67305;-67
2024/01/29 06:47:23;;;;;;;42.80;25.40;;;;;;;0.33;85.80;102973.33;104933;1257;139039;-64
2024/01/29 06:49:50;;;;;;;44.60;26.20;;;;;;;0.34;85.77;102977.39;105058;1255;61359;-64
2024/01/29 06:52:16;;;;;;;45.70;25.00;;;;;;;0.37;85.69;102978.37;105153;1254;61259;-59
2024/01/29 06:54:43;;;;;;;44.90;25.70;;;;;;;0.41;85.89;102976.70;104852;1256;139233;-59
2024/01/29 06:57:10;;;;;;;44.70;26.80;;;;;;;0.43;85.64;102975.79;104775;1261;66522;-58
2024/01/29 06:59:37;;;;;;;47.20;26.70;;;;;;;0.43;85.66;102972.03;104818;1254;138967;-63
2024/01/29 07:02:05;;;;;;;44.70;25.60;;;;;;;0.44;85.77;102973.56;105018;1255;61289;-64
2024/01/29 07:04:32;;;;;;;42.20;25.00;;;;;;;0.46;85.79;102974.45;106341;1256;61243;-59
2024/01/29 07:07:00;;;;;;;50.20;25.90;;;;;;;0.49;85.76;102977.52;104843;1254;138620;-60
2024/01/29 07:09:26;;;;;;;46.90;26.60;;;;;;;0.53;85.83;102981.02;109179;1254;67147;-64
2024/01/29 07:11:53;;;;;;;45.00;26.80;;;;;;;0.56;85.84;102984.23;109062;1254;138832;-59
2024/01/29 07:14:21;;;;;;;47.40;27.50;;;;;;;0.60;85.71;102981.06;109166;1254;59034;-64
2024/01/29 07:16:48;;;;;;;45.40;26.00;;;;;;;0.65;85.67;102979.83;109143;1256;60090;-65
2024/01/29 07:19:21;;;;;;;50.10;26.70;;;;;;;0.69;85.53;102975.59;108980;1254;139888;-64
2024/01/29 07:21:49;;;;;;;;;;;;;;;0.75;85.43;102974.06;109207;1254;65425;-60
2024/01/29 07:24:15;;;;;;;45.80;25.20;;;;;;;0.81;85.59;102970.81;109065;1254;124585;-59
2024/01/29 07:26:42;;;;;;;44.80;25.10;;;;;;;0.85;85.54;102969.55;109152;1254;59035;-59
2024/01/29 07:29:09;;;;;;;43.00;25.00;;;;;;;0.90;85.40;102965.04;108847;1254;138810;-64
2024/01/29 07:31:35;;;;;;;43.60;25.70;;;;;;;0.96;85.28;102965.11;108988;1255;74559;-60
2024/01/29 07:34:02;;;;;;;47.70;25.50;;;;;;;1.02;85.28;102964.09;107308;1254;66255;-59
2024/01/29 07:36:29;;;;;;;43.90;26.60;;;;;;;1.08;85.40;102964.82;104869;1257;138588;-63
2024/01/29 07:38:55;;;;;;;47.20;26.40;;;;;;;1.13;85.21;102962.41;105042;1256;61230;-66
2024/01/29 07:41:23;;;;;;;48.20;26.40;;;;;;;1.18;85.18;102962.44;104930;1259;138779;-64
2024/01/29 07:43:50;;;;;;;51.30;26.30;;;;;;;1.25;85.23;102961.33;104993;1254;74999;-63
2024/01/29 07:46:16;;;;;;;44.20;25.60;;;;;;;1.28;84.97;102961.50;105047;1257;66474;-63
2024/01/29 07:48:44;;;;;;;42.50;25.40;;;;;;;1.33;85.10;102959.55;104891;1256;139226;-59
2024/01/29 07:51:11;;;;;;;47.60;26.00;;;;;;;1.38;85.12;102955.39;104986;1256;61336;-60
2024/01/29 07:53:37;;;;;;;42.60;26.00;;;;;;;1.43;85.04;102957.36;104873;1259;138626;-63
2024/01/29 07:56:05;;;;;;;47.30;26.50;;;;;;;1.47;84.87;102961.89;105030;1258;75739;-65
2024/01/29 07:58:32;;;;;;;49.20;24.90;;;;;;;1.51;84.91;102966.52;109164;1254;66694;-64
2024/01/29 08:00:58;;;;;;;41.40;24.30;;;;;;;1.56;84.93;102964.55;109039;1254;139230;-59
2024/01/29 08:03:25;;;;;;;44.80;26.10;;;;;;;1.62;84.89;102970.43;105942;1254;60000;-64
2024/01/29 08:05:52;;;;;;;42.50;25.50;;;;;;;1.65;84.65;102969.27;104894;1256;138759;-65
2024/01/29 08:08:19;;;;;;;46.50;24.70;;;;;;;1.71;84.77;102972.89;105061;1259;72795;-64
2024/01/29 08:10:47;;;;;;;43.50;25.70;;;;;;;1.77;84.67;102967.55;105141;1259;68059;-65
2024/01/29 08:13:14;;;;;;;44.70;24.40;;;;;;;1.83;84.56;102967.63;109079;1254;140081;-60
2024/01/29 08:15:41;;;;;;;37.50;24.00;;;;;;;1.89;84.61;102969.77;109177;1254;59264;-66
2024/01/29 08:18:08;;;;;;;39.00;24.80;;;;;;;1.96;84.47;102968.66;106182;1254;139700;-66
2024/01/29 08:20:34;;;;;;;46.70;24.60;;;;;;;2.04;84.48;102966.55;108944;1254;74775;-64
2024/01/29 08:23:01;;;;;;;41.30;25.50;;;;;;;2.12;84.21;102961.19;109092;1254;139114;-64
2024/01/29 08:25:28;;;;;;;41.10;25.00;;;;;;;2.18;84.16;102964.89;109218;1256;70752;-59
2024/01/29 08:27:55;;;;;;;39.10;24.50;;;;;;;2.26;84.12;102961.88;109139;1255;58846;-60
2024/01/29 08:30:21;;;;;;;37.60;23.80;;;;;;;2.35;84.11;102959.77;109077;1254;138998;-65
2024/01/29 08:32:48;;;;;;;38.30;23.20;;;;;;;2.45;83.91;102955.43;108974;1256;72782;-60
2024/01/29 08:35:15;;;;;;;43.80;23.80;;;;;;;2.51;83.80;102954.45;108914;1254;138399;-65
2024/01/29 08:37:41;;;;;;;46.80;24.70;;;;;;;2.59;83.69;102958.34;106161;1259;72498;-59
2024/01/29 08:40:09;;;;;;;44.40;25.20;;;;;;;2.66;83.66;102959.35;105108;1256;61328;-64
2024/01/29 08:42:36;;;;;;;41.10;25.00;;;;;;;2.74;83.58;102961.10;105008;1254;137961;-60
2024/01/29 08:45:04;;;;;;;41.60;25.10;;;;;;;2.80;83.38;102961.46;104986;1254;74052;-60
2024/01/29 08:47:30;;;;;;;41.60;25.70;;;;;;;2.84;83.27;102964.05;109072;1254;138823;-65
2024/01/29 08:49:57;;;;;;;40.70;24.70;;;;;;;2.88;83.14;102964.14;108970;1254;72689;-65
2024/01/29 08:52:24;;;;;;;43.60;25.20;;;;;;;2.95;83.19;102964.80;109264;1254;59117;-64
2024/01/29 08:54:51;;;;;;;39.80;24.30;;;;;;;3.02;83.05;102965.01;109078;1255;139414;-58
2024/01/29 08:57:17;;;;;;;44.70;25.20;;;;;;;3.11;82.88;102962.52;109205;1254;75356;-59
2024/01/29 08:59:44;;;;;;;43.20;24.60;;;;;;;3.22;83.06;102960.05;106745;1257;140164;-59
2024/01/29 09:02:11;;;;;;;44.40;25.40;;;;;;;3.31;82.70;102963.17;104981;1256;71917;-66
2024/01/29 09:04:37;;;;;;;40.80;25.40;;;;;;;3.41;82.67;102966.10;104999;1255;62001;-64
2024/01/29 09:07:04;;;;;;;45.50;25.80;;;;;;;3.49;82.57;102963.17;104898;1258;138726;-65
2024/01/29 09:09:31;;;;;;;41.00;25.60;;;;;;;3.55;82.37;102966.84;105064;1257;75119;-61
2024/01/29 09:11:57;;;;;;;41.10;24.50;;;;;;;3.62;82.44;102959.11;104938;1254;138184;-60
2024/01/29 09:14:24;;;;;;;43.60;25.60;;;;;;;3.66;82.07;102960.41;105026;1257;73121;-60
2024/01/29 09:16:51;;;;;;;43.40;26.60;;;;;;;3.69;81.97;102957.52;104834;1260;62573;-59
2024/01/29 09:19:20;;;;;;;45.30;26.40;;;;;;;3.72;81.85;102962.79;105057;1254;61453;-59
2024/01/29 09:21:48;;;;;;;49.30;26.30;;;;;;;3.74;81.76;102961.17;105045;1255;74520;-60
2024/01/29 09:24:16;;;;;;;46.40;26.10;;;;;;;3.78;81.71;102957.73;108679;1254;242234;-58
2024/01/29 09:26:43;;;;;;;42.00;25.20;;;;;;;3.85;81.67;102955.38;109157;1254;71447;-58
2024/01/29 09:29:10;;;;;;;45.60;27.10;;;;;;;3.90;81.59;102953.56;108894;1254;139039;-59
2024/01/29 09:31:36;;;;;;;41.60;26.50;;;;;;;3.94;81.42;102954.75;109261;1254;59377;-59
2024/01/29 09:34:03;;;;;;;44.70;26.70;;;;;;;3.97;81.27;102951.27;107937;1254;73063;-58
2024/01/29 09:36:30;;;;;;;44.30;24.80;;;;;;;4.00;81.14;102946.30;105010;1257;137856;-59
2024/01/29 09:38:56;;;;;;;47.60;27.40;;;;;;;4.04;81.05;102946.79;105081;1254;71983;-59
2024/01/29 09:41:23;;;;;;;43.60;26.90;;;;;;;4.06;80.79;102947.89;104876;1259;138087;-58
2024/01/29 09:43:51;;;;;;;43.90;25.80;;;;;;;4.08;80.86;102946.48;105165;1256;61299;-59
2024/01/29 09:46:17;;;;;;;46.00;26.60;;;;;;;4.10;80.70;102946.43;109157;1255;74629;-59
2024/01/29 09:48:44;;;;;;;41.70;27.00;;;;;;;4.13;80.74;102945.87;107710;1254;138548;-59
2024/01/29 09:51:13;;;;;;;41.20;25.20;;;;;;;4.17;80.59;102941.48;105042;1257;72082;-65
2024/01/29 09:53:39;;;;;;;41.30;27.10;;;;;;;4.19;80.62;102938.73;106942;1254;138519;-65
2024/01/29 09:56:06;;;;;;;41.30;24.50;;;;;;;4.23;80.52;102937.88;105093;1259;61243;-65
2024/01/29 09:58:33;;;;;;;41.30;25.20;;;;;;;4.30;80.60;102931.31;104856;1255;73987;-65
2024/01/29 10:00:59;;;;;;;41.10;25.40;;;;;;;4.33;80.31;102928.60;104710;1262;138136;-65
2024/01/29 10:03:27;;;;;;;41.80;26.10;;;;;;;4.36;80.29;102923.98;104904;1260;74565;-65
2024/01/29 10:05:55;;;;;;;44.30;26.70;;;;;;;4.38;80.19;102920.30;108737;1254;138704;-63
2024/01/29 10:08:23;;;;;;;41.70;27.00;;;;;;;4.41;80.09;102922.54;106302;1260;61160;-60
2024/01/29 10:10:51;;;;;;;44.40;25.30;;;;;;;4.42;80.10;102911.77;105011;1257;75082;-65
2024/01/29 10:13:18;;;;;;;41.50;25.90;;;;;;;4.46;79.94;102914.46;105643;1256;66574;-65
2024/01/29 10:15:44;;;;;;;41.40;26.50;;;;;;;4.48;79.92;102910.26;105029;1254;73622;-65
2024/01/29 10:18:12;;;;;;;43.20;25.10;;;;;;;4.53;79.86;102905.04;104904;1259;139930;-65
2024/01/29 10:20:39;;;;;;;36.30;25.60;;;;;;;4.59;79.85;102902.08;106797;1259;61190;-64
2024/01/29 10:23:06;;;;;;;38.00;24.60;;;;;;;4.64;79.68;102895.44;104724;1256;139141;-64
2024/01/29 10:25:34;;;;;;;42.20;25.40;;;;;;;4.69;79.59;102891.45;104973;1257;67172;-65
2024/01/29 10:28:13;;;;;;;37.00;23.90;;;;;;;4.73;79.37;102890.73;105066;1259;73050;-64
2024/01/29 10:30:40;;;;;;;37.30;23.60;;;;;;;4.75;79.29;102888.67;104800;1257;137966;-64
2024/01/29 10:33:07;;;;;;;39.90;24.90;;;;;;;4.81;79.21;102885.48;104964;1256;61238;-64
2024/01/29 10:35:35;;;;;;;42.60;24.50;;;;;;;4.88;79.24;102885.69;107921;1254;138760;-62
2024/01/29 10:38:04;;;;;;;42.10;25.10;;;;;;;4.92;79.21;102884.16;105174;1259;66897;-62
2024/01/29 10:40:33;;;;;;;39.10;25.50;;;;;;;4.96;79.00;102877.19;109148;1254;72804;-63
2024/01/29 10:43:00;;;;;;;43.20;26.00;;;;;;;5.01;78.83;102881.80;108926;1255;139516;-63
2024/01/29 10:45:26;;;;;;;42.40;25.00;;;;;;;5.09;78.74;102884.44;107173;1257;61147;-63
2024/01/29 10:48:05;;;;;;;45.10;25.30;;;;;;;5.13;78.78;102883.27;104967;1255;138735;-75
2024/01/29 10:50:32;;;;;;;40.20;24.40;;;;;;;5.21;78.59;102876.58;108144;1258;67775;-65
2024/01/29 10:52:59;;;;;;;37.60;23.30;;;;;;;5.27;78.47;102876.69;104983;1255;138280;-60
2024/01/29 10:55:26;;;;;;;39.20;24.80;;;;;;;5.29;78.18;102869.04;109222;1254;59195;-66
2024/01/29 10:57:52;;;;;;;42.00;24.60;;;;;;;5.32;78.14;102865.79;105788;1255;61385;-65
2024/01/29 11:00:19;;;;;;;39.70;24.70;;;;;;;5.36;78.08;102864.88;105005;1255;137909;-65
2024/01/29 11:02:46;;;;;;;35.10;22.20;;;;;;;5.39;77.95;102857.33;105141;1257;67541;-65
2024/01/29 11:05:13;;;;;;;37.50;24.10;;;;;;;5.40;77.71;102848.16;104809;1257;139166;-60